Domov               UVHVVR             MKGP            O straneh              
ZDRAVSTVENO VARSTVO RASTLIN
  MREŽA AGROMET. POSTAJ
 ► PROGNOSTIČNA OBVESTILA
AGROMETEOROLOŠKI PODATKI -
ARSO
OBVLADOVANJE TVEGANJ ZARADI
NEUGODNIH VREMENSKIH RAZMER
  ► NARAVNE NESREČE
  ► SUŠA/MOČA
  ► NAMAKANJE
  ► ŽLED (gozdarstvo)
KARTOGRAFSKI PRIKAZI
SPLETNE POVEZAVE
PROJEKTI IN PUBLIKACIJE

AGROMETEOROLOŠKA MREŽA: VREMENSKE POSTAJE IN FENOLOŠKA OPAZOVANJA

Pregled podatkov za lokacijo Savci, meteorološka postaja 27393

Pregled senzorjev na lokaciji

ID Ime Zadnja
vrednost
Datum
zadnje
spremembe
Tip
senzorja
942 Omočenost lista (U) 5 U 25.6.2017 23:43 A730WET
943 Temperatura 2 m ( °C) 17,02 °C 25.6.2017 23:43 Generic -40 - +60 °C
944 Relativna vlaga 2 m (% RH) 99,93 % RH 25.6.2017 23:43 Generic 0 - 100 %
1378 Padavine 0.2 mm (mm) 0 mm 25.6.2017 23:43 Generic 0.2 mm

Pregled podatkov zadnjih 24 ur

Zap.
št.
Datum in čas Savci
Omočenost
lista
Padavine
0.2
mm
Relativna
vlaga
2
m
Temperatura
2
m
0 25.6.2017 22:30 5 0 99,93 17,02
1 25.6.2017 22:00 4 0 99,93 17,07
2 25.6.2017 21:30 4 0 99,93 17,12
3 25.6.2017 21:00 4 0 99,93 17,34
4 25.6.2017 20:30 5 0,4 99,93 17,44
5 25.6.2017 20:00 6 2,2 99,93 17,58
6 25.6.2017 19:30 8 2,8 99,93 17,58
7 25.6.2017 19:00 10 6,4 99,78 18,39
8 25.6.2017 18:30 9 0,2 93,26 19,07
9 25.6.2017 18:00 10 0,8 89,45 20
10 25.6.2017 17:30 1 0 83,57 20,95
11 25.6.2017 17:00 0 0 80,54 21,27
12 25.6.2017 16:30 0 0 76,65 21,98
13 25.6.2017 16:00 0 0 71,55 22,54
14 25.6.2017 15:30 0 0 70,53 22,12
15 25.6.2017 15:00 0 0 74,43 20,73
16 25.6.2017 14:30 0 0 78,68 19,61
17 25.6.2017 14:00 4 0,2 84,05 19,07
18 25.6.2017 13:30 10 0 82,66 19,88
19 25.6.2017 13:00 2 0 69,62 22,56
20 25.6.2017 12:30 0 0 71,48 25,67
21 25.6.2017 12:00 0 0 64,76 26,13
22 25.6.2017 11:30 0 0 63,27 25,76
23 25.6.2017 11:00 0 0 61,98 25,47
24 25.6.2017 10:30 2 0 64,35 24,27
25 25.6.2017 10:00 5 0 72,09 23,88
26 25.6.2017 09:30 0 0 67,4 24,37
27 25.6.2017 09:00 0 0 63,83 24,76
28 25.6.2017 08:30 0 0 67,01 23,44
29 25.6.2017 08:00 0 0 70,4 22,42
30 25.6.2017 07:30 0 0 76,83 21,37
31 25.6.2017 07:00 0 0 80,83 20,39
32 25.6.2017 06:30 0 0 85,98 19,41
33 25.6.2017 06:00 0 0 90,38 18,63
34 25.6.2017 05:30 10 0 99,93 18,02
35 25.6.2017 05:00 10 0 99,93 17,7
36 25.6.2017 04:30 10 0 99,93 17,66
37 25.6.2017 04:00 10 0 99,93 17,78
38 25.6.2017 03:30 10 0 99,93 18,02
39 25.6.2017 03:00 10 0 96,07 18,24
40 25.6.2017 02:30 10 1,4 93,04 19,71
41 25.6.2017 02:00 0 0 57,78 23,83
42 25.6.2017 01:30 10 0 77,53 21,66
43 25.6.2017 01:00 10 0 99,93 20,59
44 25.6.2017 00:30 10 0 99,93 21,07
© 2011 Ministrstvo za kmetijstvo, gozdarstvo in prehrano. Vse pravice pridržane.